Terminal Aerodrome Forecast
Issued by NWS

Home | Current Version | Previous Version | Text Only | Print | Product List | Glossary On
Versions: 1 2 3 4 5 6 7 8 9 10 11 12 13 14 15 16 17 18 19 20 21 22 23 24 25
000
FTUS43 KDLH 172300
TAFHYR
TAF
KHYR 172338Z 1800/1824 VRB04KT P6SM OVC029
     FM180200 VRB03KT P6SM SCT035
      TEMPO 1804/1808 2SM BR
     FM181800 11005KT P6SM BKN150=

USA.gov is the U.S. government's official web portal to all federal, state and local government web resources and services.